| time (UTC) | temp F | wind direction | speed MPH | gust MPH | rain 1hr in | rain 24hr in | rain mn in | humidity % | barometer mb |
| 20260510120543 | 55 | 226 | 13.0 | 9.0 | 0.00 | 0.03 | 0.03 | 69 | 1001.1 |
| 20260510120038 | 55 | 238 | 13.0 | 8.0 | 0.00 | 0.03 | 0.03 | 69 | 1001.1 |
| 20260510115539 | 55 | 238 | 18.0 | 14.0 | 0.00 | 0.03 | 0.03 | 67 | 1001.1 |
| 20260510115040 | 56 | 228 | 13.0 | 10.0 | 0.00 | 0.03 | 0.03 | 69 | 1001.0 |
| 20260510114538 | 56 | 233 | 22.0 | 18.0 | 0.00 | 0.03 | 0.03 | 73 | 1001.0 |
| 20260510114037 | 56 | 266 | 15.0 | 10.0 | 0.00 | 0.03 | 0.03 | 73 | 1000.9 |
| 20260510113540 | 56 | 178 | 8.0 | 13.0 | 0.00 | 0.03 | 0.03 | 78 | 1000.9 |
| 20260510113040 | 54 | 123 | 6.0 | 3.0 | 0.00 | 0.03 | 0.03 | 82 | 1000.9 |
| 20260510112537 | 54 | 229 | 6.0 | 3.0 | 0.00 | 0.03 | 0.03 | 82 | 1000.8 |
| 20260510112038 | 55 | 217 | 7.0 | 6.0 | 0.00 | 0.03 | 0.03 | 82 | 1000.8 |
| 20260510111540 | 55 | 269 | 9.0 | 7.0 | 0.00 | 0.03 | 0.03 | 83 | 1000.6 |
| 20260510111040 | 54 | 236 | 7.0 | 5.0 | 0.00 | 0.03 | 0.03 | 84 | 1000.6 |
| 20260510110539 | 53 | 103 | 6.0 | 8.0 | 0.00 | 0.03 | 0.03 | 86 | 1000.6 |
| 20260510110040 | 52 | 268 | 5.0 | 5.0 | 0.00 | 0.03 | 0.03 | 88 | 1000.0 |
| 20260510105538 | 52 | 214 | 1.0 | 0.0 | 0.00 | 0.03 | 0.03 | 89 | 1000.0 |
| 20260510105038 | 52 | 146 | 5.0 | 3.0 | 0.00 | 0.03 | 0.03 | 89 | 1000.1 |
| 20260510104538 | 52 | 135 | 1.0 | 5.0 | 0.00 | 0.03 | 0.03 | 89 | 1000.1 |
| 20260510104037 | 52 | 116 | 1.0 | 2.0 | 0.00 | 0.03 | 0.03 | 89 | 1000.0 |
| 20260510103537 | 52 | 159 | 3.0 | 2.0 | 0.00 | 0.03 | 0.03 | 89 | 1000.0 |
| 20260510103037 | 52 | 211 | 1.0 | 6.0 | 0.00 | 0.03 | 0.03 | 90 | 1000.0 |
| 20260510102539 | 52 | 225 | 1.0 | 3.0 | 0.00 | 0.03 | 0.03 | 90 | 1000.0 |
| 20260510102011 | 51 | 180 | 3.0 | 5.0 | 0.00 | 0.03 | 0.03 | 90 | 1000.0 |
| 20260510101507 | 51 | 190 | 7.0 | 8.0 | 0.00 | 0.03 | 0.03 | 91 | 999.8 |
| 20260510101008 | 51 | 90 | 6.0 | 6.0 | 0.00 | 0.03 | 0.03 | 91 | 999.8 |
| 20260510100509 | 51 | 153 | 6.0 | 6.0 | 0.00 | 0.03 | 0.03 | 91 | 999.8 |
| 20260510100010 | 51 | 134 | 1.0 | 3.0 | 0.00 | 0.03 | 0.03 | 92 | 999.6 |
| 20260510095509 | 51 | 168 | 6.0 | 3.0 | 0.00 | 0.03 | 0.03 | 92 | 999.6 |
| 20260510095007 | 51 | 150 | 3.0 | 5.0 | 0.00 | 0.03 | 0.03 | 92 | 999.4 |
| 20260510094508 | 50 | 143 | 3.0 | 5.0 | 0.00 | 0.03 | 0.03 | 92 | 999.4 |
| 20260510094007 | 50 | 163 | 5.0 | 3.0 | 0.00 | 0.03 | 0.03 | 92 | 999.2 |
| 20260510093507 | 50 | 171 | 5.0 | 5.0 | 0.00 | 0.03 | 0.03 | 92 | 999.2 |
| 20260510093009 | 50 | 124 | 8.0 | 6.0 | 0.00 | 0.03 | 0.03 | 92 | 999.2 |
| 20260510092507 | 50 | 137 | 3.0 | 6.0 | 0.00 | 0.03 | 0.03 | 92 | 999.1 |
| 20260510092009 | 51 | 106 | 0.0 | 0.0 | 0.00 | 0.03 | 0.03 | 91 | 999.1 |
| 20260510091506 | 51 | 191 | 2.0 | 5.0 | 0.00 | 0.03 | 0.03 | 91 | 999.1 |
| 20260510091007 | 51 | 142 | 5.0 | 3.0 | 0.00 | 0.03 | 0.03 | 91 | 999.1 |
| 20260510090510 | 51 | 148 | 3.0 | 3.0 | 0.00 | 0.03 | 0.03 | 91 | 999.1 |
| 20260510090007 | 51 | 132 | 3.0 | 5.0 | 0.00 | 0.03 | 0.03 | 91 | 998.8 |
| 20260510085508 | 51 | 117 | 5.0 | 6.0 | 0.00 | 0.03 | 0.03 | 91 | 998.8 |
| 20260510085007 | 51 | 106 | 6.0 | 2.0 | 0.00 | 0.03 | 0.03 | 91 | 998.9 |
| 20260510084506 | 51 | 167 | 7.0 | 6.0 | 0.00 | 0.03 | 0.03 | 91 | 998.9 |
| 20260510084008 | 51 | 167 | 5.0 | 5.0 | 0.00 | 0.03 | 0.03 | 91 | 998.8 |
| 20260510083510 | 51 | 143 | 3.0 | 2.0 | 0.00 | 0.03 | 0.03 | 91 | 998.7 |
| 20260510083008 | 51 | 160 | 7.0 | 5.0 | 0.00 | 0.03 | 0.03 | 91 | 998.7 |
| 20260510082437 | 51 | 171 | 5.0 | 7.0 | 0.00 | 0.03 | 0.03 | 91 | 998.7 |
| 20260510081942 | 51 | 130 | 10.0 | 8.0 | 0.00 | 0.03 | 0.03 | 91 | 998.7 |
| 20260510081436 | 51 | 200 | 9.0 | 5.0 | 0.00 | 0.03 | 0.03 | 91 | 998.8 |
| 20260510080939 | 51 | 183 | 8.0 | 8.0 | 0.00 | 0.03 | 0.03 | 91 | 998.8 |
| 20260510080437 | 51 | 120 | 13.0 | 10.0 | 0.00 | 0.03 | 0.03 | 91 | 998.7 |
| 20260510075938 | 51 | 180 | 6.0 | 5.0 | 0.00 | 0.03 | 0.03 | 91 | 998.7 |
| 20260510075437 | 52 | 218 | 8.0 | 6.0 | 0.00 | 0.03 | 0.03 | 91 | 998.7 |
| 20260510074937 | 52 | 134 | 8.0 | 7.0 | 0.00 | 0.03 | 0.03 | 91 | 998.6 |
| 20260510074440 | 52 | 245 | 6.0 | 7.0 | 0.00 | 0.03 | 0.03 | 91 | 998.6 |
| 20260510073935 | 52 | 153 | 10.0 | 10.0 | 0.00 | 0.03 | 0.03 | 91 | 998.6 |
| 20260510073439 | 52 | 114 | 7.0 | 8.0 | 0.00 | 0.03 | 0.03 | 91 | 998.6 |
| 20260510072937 | 52 | 317 | 7.0 | 5.0 | 0.00 | 0.03 | 0.03 | 91 | 998.6 |
| 20260510072438 | 52 | 115 | 12.0 | 9.0 | 0.01 | 0.03 | 0.03 | 91 | 998.5 |
| 20260510071939 | 52 | 135 | 8.0 | 7.0 | 0.01 | 0.03 | 0.03 | 91 | 998.5 |
| 20260510071437 | 52 | 147 | 7.0 | 6.0 | 0.01 | 0.03 | 0.03 | 91 | 998.4 |
| 20260510070938 | 52 | 103 | 8.0 | 8.0 | 0.01 | 0.03 | 0.03 | 91 | 998.4 |
| 20260510070436 | 52 | 163 | 9.0 | 8.0 | 0.01 | 0.03 | 0.03 | 92 | 998.3 |
| 20260510065939 | 52 | 144 | 8.0 | 8.0 | 0.02 | 0.03 | 0.03 | 92 | 998.3 |
| 20260510065439 | 52 | 189 | 10.0 | 8.0 | 0.02 | 0.03 | 0.03 | 92 | 998.3 |
| 20260510064939 | 52 | 130 | 9.0 | 8.0 | 0.03 | 0.03 | 0.03 | 92 | 998.3 |
| 20260510064406 | 52 | 221 | 17.0 | 16.0 | 0.03 | 0.03 | 0.03 | 92 | 998.3 |
| 20260510063907 | 52 | 127 | 12.0 | 14.0 | 0.03 | 0.03 | 0.03 | 92 | 998.2 |
| 20260510063336 | 52 | 270 | 12.0 | 8.0 | 0.03 | 0.03 | 0.03 | 92 | 998.2 |
| 20260510062840 | 52 | 112 | 10.0 | 16.0 | 0.03 | 0.03 | 0.03 | 92 | 998.4 |
| 20260510062335 | 52 | 51 | 12.0 | 8.0 | 0.02 | 0.02 | 0.02 | 92 | 998.4 |
| 20260510061805 | 52 | 86 | 12.0 | 12.0 | 0.02 | 0.02 | 0.02 | 92 | 998.4 |
| 20260510061305 | 52 | 291 | 12.0 | 7.0 | 0.02 | 0.02 | 0.02 | 91 | 998.5 |
| 20260510060805 | 52 | 160 | 14.0 | 10.0 | 0.02 | 0.02 | 0.02 | 91 | 998.5 |
| 20260510060309 | 52 | 132 | 10.0 | 9.0 | 0.01 | 0.01 | 0.01 | 91 | 998.5 |
| 20260510055806 | 52 | 112 | 10.0 | 8.0 | 0.01 | 0.01 | 0.01 | 90 | 998.5 |
| 20260510055307 | 52 | 52 | 16.0 | 10.0 | 0.01 | 0.01 | 0.01 | 90 | 998.5 |
| 20260510054805 | 52 | 233 | 10.0 | 8.0 | 0.00 | 0.00 | 0.00 | 89 | 998.6 |
| 20260510053736 | 52 | 112 | 9.0 | 10.0 | 0.00 | 0.00 | 0.00 | 87 | 998.5 |
| 20260510053307 | 53 | 173 | 15.0 | 16.0 | 0.00 | 0.00 | 0.00 | 85 | 998.5 |
| 20260510053235 | 53 | 173 | 15.0 | 16.0 | 0.00 | 0.00 | 0.00 | 85 | 998.5 |
| 20260510052735 | 53 | 68 | 9.0 | 10.0 | 0.00 | 0.00 | 0.00 | 85 | 998.5 |
| 20260510052236 | 53 | 191 | 10.0 | 10.0 | 0.00 | 0.00 | 0.00 | 83 | 998.5 |
| 20260510051735 | 53 | 234 | 16.0 | 20.0 | 0.00 | 0.00 | 0.00 | 81 | 998.5 |
| 20260510051235 | 53 | 189 | 13.0 | 16.0 | 0.00 | 0.00 | 0.00 | 81 | 998.4 |
| 20260510050735 | 53 | 112 | 14.0 | 14.0 | 0.00 | 0.00 | 0.00 | 80 | 998.4 |
| 20260510050236 | 53 | 136 | 8.0 | 6.0 | 0.00 | 0.00 | 0.00 | 80 | 998.5 |
| 20260510045738 | 53 | 141 | 12.0 | 14.0 | 0.00 | 0.00 | 0.00 | 80 | 998.5 |
| 20260510045235 | 52 | 153 | 13.0 | 10.0 | 0.00 | 0.00 | 0.00 | 80 | 998.4 |
| 20260510044734 | 52 | 321 | 12.0 | 7.0 | 0.00 | 0.00 | 0.00 | 80 | 998.4 |
| 20260510044234 | 52 | 215 | 14.0 | 13.0 | 0.00 | 0.00 | 0.00 | 80 | 998.4 |
| 20260510043735 | 52 | 73 | 14.0 | 14.0 | 0.00 | 0.00 | 0.00 | 80 | 998.1 |
| 20260510043235 | 52 | 94 | 9.0 | 15.0 | 0.00 | 0.00 | 0.00 | 80 | 998.1 |
| 20260510042735 | 52 | 68 | 15.0 | 8.0 | 0.00 | 0.00 | 0.00 | 79 | 997.9 |
| 20260510042235 | 52 | 154 | 13.0 | 13.0 | 0.00 | 0.00 | 0.00 | 79 | 997.9 |
| 20260510041734 | 51 | 146 | 17.0 | 15.0 | 0.00 | 0.00 | 0.00 | 79 | 997.9 |
| 20260510041237 | 51 | 119 | 16.0 | 10.0 | 0.00 | 0.00 | 0.00 | 79 | 998.2 |
| 20260510040735 | 51 | 130 | 10.0 | 15.0 | 0.00 | 0.00 | 0.00 | 79 | 998.2 |
| 20260510040235 | 51 | 170 | 14.0 | 13.0 | 0.00 | 0.00 | 0.00 | 79 | 998.1 |
| 20260510035734 | 51 | 121 | 14.0 | 14.0 | 0.00 | 0.00 | 0.00 | 79 | 998.1 |
| 20260510035234 | 51 | 105 | 17.0 | 15.0 | 0.00 | 0.00 | 0.00 | 79 | 998.3 |
| 20260510034738 | 51 | 120 | 14.0 | 14.0 | 0.00 | 0.00 | 0.00 | 79 | 998.4 |
| 20260510034236 | 51 | 98 | 16.0 | 8.0 | 0.00 | 0.00 | 0.00 | 79 | 998.4 |
| 20260510033736 | 51 | 153 | 14.0 | 13.0 | 0.00 | 0.00 | 0.00 | 79 | 998.5 |
| 20260510033234 | 51 | 112 | 12.0 | 9.0 | 0.00 | 0.00 | 0.00 | 79 | 998.5 |
| 20260510032735 | 51 | 124 | 13.0 | 10.0 | 0.00 | 0.00 | 0.00 | 79 | 998.2 |
| 20260510031733 | 51 | 123 | 16.0 | 13.0 | 0.00 | 0.00 | 0.00 | 79 | 998.2 |
| 20260510031236 | 52 | 104 | 13.0 | 10.0 | 0.00 | 0.00 | 0.00 | 79 | 998.7 |
| 20260510030733 | 52 | 116 | 14.0 | 9.0 | 0.00 | 0.00 | 0.00 | 79 | 998.7 |
| 20260510030234 | 52 | 140 | 9.0 | 9.0 | 0.00 | 0.00 | 0.00 | 79 | 999.1 |
| 20260510025737 | 52 | 120 | 16.0 | 14.0 | 0.00 | 0.00 | 0.00 | 79 | 999.1 |
| 20260510025235 | 52 | 156 | 16.0 | 10.0 | 0.00 | 0.00 | 0.00 | 79 | 999.1 |
| 20260510024733 | 52 | 110 | 14.0 | 20.0 | 0.00 | 0.00 | 0.00 | 79 | 999.1 |
| 20260510024235 | 52 | 126 | 16.0 | 13.0 | 0.00 | 0.00 | 0.00 | 79 | 999.1 |
| 20260510023734 | 52 | 163 | 8.0 | 18.0 | 0.00 | 0.00 | 0.00 | 79 | 999.2 |
| 20260510023237 | 52 | 152 | 15.0 | 10.0 | 0.00 | 0.00 | 0.00 | 79 | 999.2 |
| 20260510022705 | 52 | 181 | 18.0 | 10.0 | 0.00 | 0.00 | 0.00 | 79 | 999.3 |
| 20260510022207 | 52 | 165 | 12.0 | 12.0 | 0.00 | 0.00 | 0.00 | 79 | 999.3 |
| 20260510021703 | 52 | 135 | 14.0 | 10.0 | 0.00 | 0.00 | 0.00 | 79 | 999.3 |
| 20260510021205 | 52 | 102 | 9.0 | 6.0 | 0.00 | 0.00 | 0.00 | 79 | 999.5 |
| 20260510020634 | 52 | 112 | 8.0 | 10.0 | 0.00 | 0.00 | 0.00 | 78 | 999.5 |
| 20260510020104 | 52 | 126 | 16.0 | 12.0 | 0.00 | 0.00 | 0.00 | 78 | 999.8 |
| 20260510015605 | 52 | 17 | 6.0 | 8.0 | 0.00 | 0.00 | 0.00 | 77 | 999.8 |
| 20260510015036 | 52 | 86 | 6.0 | 8.0 | 0.00 | 0.00 | 0.00 | 76 | 999.5 |
| 20260510014535 | 52 | 118 | 8.0 | 7.0 | 0.00 | 0.00 | 0.00 | 76 | 999.5 |
| 20260510014034 | 52 | 111 | 15.0 | 10.0 | 0.00 | 0.00 | 0.00 | 76 | 999.6 |
| 20260510013533 | 52 | 205 | 16.0 | 13.0 | 0.00 | 0.00 | 0.00 | 76 | 999.6 |
| 20260510013034 | 52 | 124 | 13.0 | 9.0 | 0.00 | 0.00 | 0.00 | 75 | 999.6 |
| 20260510012533 | 53 | 147 | 8.0 | 7.0 | 0.00 | 0.00 | 0.00 | 75 | 999.6 |
| 20260510011506 | 53 | 103 | 14.0 | 12.0 | 0.00 | 0.00 | 0.00 | 74 | 999.6 |
| 20260510010937 | 53 | 99 | 14.0 | 20.0 | 0.00 | 0.00 | 0.00 | 73 | 999.6 |
| 20260510010436 | 53 | 140 | 16.0 | 12.0 | 0.00 | 0.00 | 0.00 | 73 | 999.6 |
| 20260510005933 | 53 | 96 | 9.0 | 8.0 | 0.00 | 0.00 | 0.00 | 72 | 999.6 |
| 20260510005435 | 53 | 135 | 16.0 | 10.0 | 0.00 | 0.00 | 0.00 | 72 | 999.6 |
| 20260510004932 | 53 | 125 | 9.0 | 8.0 | 0.00 | 0.00 | 0.00 | 72 | 999.8 |
| 20260510004436 | 53 | 147 | 8.0 | 7.0 | 0.00 | 0.00 | 0.00 | 72 | 999.8 |
| 20260510003937 | 54 | 167 | 10.0 | 16.0 | 0.00 | 0.00 | 0.00 | 71 | 999.5 |
| 20260510003437 | 54 | 79 | 12.0 | 9.0 | 0.00 | 0.00 | 0.00 | 71 | 999.5 |
| 20260510002903 | 54 | 112 | 9.0 | 6.0 | 0.00 | 0.00 | 0.00 | 70 | 999.5 |
| 20260510002403 | 54 | 292 | 9.0 | 5.0 | 0.00 | 0.00 | 0.00 | 70 | 999.6 |
| 20260510001902 | 54 | 106 | 14.0 | 17.0 | 0.00 | 0.00 | 0.00 | 69 | 999.6 |
| 20260510001403 | 55 | 119 | 20.0 | 13.0 | 0.00 | 0.00 | 0.00 | 68 | 999.6 |
| 20260510000904 | 55 | 191 | 18.0 | 16.0 | 0.00 | 0.00 | 0.00 | 68 | 999.6 |
| 20260510000405 | 55 | 131 | 15.0 | 10.0 | 0.00 | 0.00 | 0.00 | 68 | 999.4 |
| 20260509235904 | 55 | 174 | 13.0 | 14.0 | 0.00 | 0.00 | 0.00 | 67 | 999.4 |
| 20260509235334 | 55 | 112 | 16.0 | 12.0 | 0.00 | 0.00 | 0.00 | 66 | 999.4 |
| 20260509234834 | 55 | 113 | 13.0 | 14.0 | 0.00 | 0.00 | 0.00 | 66 | 999.4 |
| 20260509234337 | 56 | 46 | 15.0 | 17.0 | 0.00 | 0.00 | 0.00 | 66 | 999.4 |
| 20260509233832 | 56 | 68 | 12.0 | 16.0 | 0.00 | 0.00 | 0.00 | 65 | 999.4 |
| 20260509233334 | 56 | 123 | 18.0 | 16.0 | 0.00 | 0.00 | 0.00 | 65 | 999.4 |
| 20260509232835 | 56 | 69 | 17.0 | 15.0 | 0.00 | 0.00 | 0.00 | 64 | 999.5 |
| 20260509232335 | 57 | 112 | 20.0 | 13.0 | 0.00 | 0.00 | 0.00 | 63 | 999.5 |
| 20260509231837 | 57 | 162 | 23.0 | 21.0 | 0.00 | 0.00 | 0.00 | 62 | 999.5 |
| 20260509231442 | 58 | 203 | 23.0 | 17.0 | 0.00 | 0.00 | 0.00 | 61 | 999.8 |
| 20260509231333 | 58 | 203 | 23.0 | 17.0 | 0.00 | 0.00 | 0.00 | 61 | 999.8 |
| 20260509230832 | 58 | 56 | 13.0 | 10.0 | 0.00 | 0.00 | 0.00 | 61 | 999.8 |
| 20260509230333 | 59 | 112 | 28.0 | 18.0 | 0.00 | 0.00 | 0.00 | 60 | 999.6 |
| 20260509225805 | 59 | 164 | 24.0 | 22.0 | 0.00 | 0.00 | 0.00 | 60 | 999.6 |
| 20260509225306 | 60 | 140 | 17.0 | 10.0 | 0.00 | 0.00 | 0.00 | 60 | 999.8 |
| 20260509224802 | 60 | 101 | 23.0 | 17.0 | 0.00 | 0.00 | 0.00 | 60 | 999.8 |
| 20260509224302 | 60 | 135 | 14.0 | 14.0 | 0.00 | 0.00 | 0.00 | 59 | 999.8 |
| 20260509223803 | 60 | 112 | 10.0 | 8.0 | 0.00 | 0.00 | 0.00 | 59 | 999.8 |
| 20260509223302 | 60 | 144 | 24.0 | 20.0 | 0.00 | 0.00 | 0.00 | 58 | 999.8 |
| 20260509222801 | 60 | 93 | 17.0 | 10.0 | 0.00 | 0.00 | 0.00 | 57 | 999.6 |
| 20260509222306 | 61 | 182 | 18.0 | 17.0 | 0.00 | 0.00 | 0.00 | 56 | 999.6 |
| 20260509221805 | 61 | 103 | 13.0 | 16.0 | 0.00 | 0.00 | 0.00 | 56 | 999.5 |
| 20260509221305 | 61 | 147 | 13.0 | 20.0 | 0.00 | 0.00 | 0.00 | 55 | 999.5 |
| 20260509220802 | 61 | 68 | 13.0 | 12.0 | 0.00 | 0.00 | 0.00 | 56 | 999.5 |
| 20260509220303 | 60 | 75 | 12.0 | 14.0 | 0.00 | 0.00 | 0.00 | 56 | 999.5 |
| 20260509215803 | 61 | 170 | 16.0 | 14.0 | 0.00 | 0.00 | 0.00 | 55 | 999.5 |
| 20260509215301 | 62 | 263 | 18.0 | 12.0 | 0.00 | 0.00 | 0.00 | 52 | 999.6 |
| 20260509214802 | 62 | 270 | 16.0 | 12.0 | 0.00 | 0.00 | 0.00 | 52 | 999.6 |
| 20260509214231 | 63 | 141 | 13.0 | 14.0 | 0.00 | 0.00 | 0.00 | 51 | 999.6 |
| 20260509213733 | 63 | 98 | 21.0 | 21.0 | 0.00 | 0.00 | 0.00 | 49 | 999.7 |
| 20260509213233 | 63 | 140 | 20.0 | 14.0 | 0.00 | 0.00 | 0.00 | 49 | 999.7 |
| 20260509212731 | 63 | 95 | 24.0 | 22.0 | 0.00 | 0.00 | 0.00 | 49 | 999.7 |
| 20260509211704 | 63 | 112 | 25.0 | 25.0 | 0.00 | 0.00 | 0.00 | 48 | 999.7 |
| 20260509211204 | 63 | 243 | 16.0 | 13.0 | 0.00 | 0.00 | 0.00 | 49 | 999.7 |
| 20260509210704 | 63 | 107 | 20.0 | 15.0 | 0.00 | 0.00 | 0.00 | 49 | 999.7 |
| 20260509210201 | 64 | 238 | 18.0 | 22.0 | 0.00 | 0.00 | 0.00 | 49 | 999.9 |
| 20260509205703 | 63 | 151 | 17.0 | 20.0 | 0.00 | 0.00 | 0.00 | 50 | 999.9 |
| 20260509205202 | 64 | 342 | 13.0 | 16.0 | 0.00 | 0.00 | 0.00 | 49 | 999.7 |
| 20260509204709 | 63 | 140 | 16.0 | 17.0 | 0.00 | 0.00 | 0.00 | 49 | 999.7 |
| 20260509204201 | 64 | 234 | 10.0 | 8.0 | 0.00 | 0.00 | 0.00 | 48 | 999.7 |
| 20260509203632 | 64 | 138 | 14.0 | 12.0 | 0.00 | 0.00 | 0.00 | 48 | 1000.0 |
| 20260509203133 | 64 | 195 | 12.0 | 9.0 | 0.00 | 0.00 | 0.00 | 47 | 1000.0 |
| 20260509202633 | 65 | 209 | 24.0 | 24.0 | 0.00 | 0.00 | 0.00 | 45 | 1000.0 |
| 20260509202131 | 64 | 163 | 15.0 | 10.0 | 0.00 | 0.00 | 0.00 | 45 | 1000.0 |
| 20260509201604 | 65 | 180 | 10.0 | 7.0 | 0.00 | 0.00 | 0.00 | 42 | 1000.1 |
| 20260509201102 | 65 | 180 | 12.0 | 7.0 | 0.00 | 0.00 | 0.00 | 42 | 1000.1 |
| 20260509200607 | 65 | 210 | 21.0 | 16.0 | 0.00 | 0.00 | 0.00 | 43 | 1000.1 |
| 20260509195601 | 64 | 180 | 9.0 | 12.0 | 0.00 | 0.00 | 0.00 | 43 | 1000.3 |
| 20260509195103 | 65 | 204 | 16.0 | 10.0 | 0.00 | 0.00 | 0.00 | 41 | 1000.1 |
| 20260509194602 | 66 | 17 | 16.0 | 15.0 | 0.00 | 0.00 | 0.00 | 38 | 1000.1 |
| 20260509194101 | 67 | 247 | 15.0 | 22.0 | 0.00 | 0.00 | 0.00 | 37 | 1000.1 |
| 20260509193601 | 67 | 184 | 13.0 | 13.0 | 0.00 | 0.00 | 0.00 | 32 | 1000.1 |
| 20260509193100 | 66 | 124 | 15.0 | 10.0 | 0.00 | 0.00 | 0.00 | 31 | 1000.1 |
| 20260509192600 | 66 | 154 | 16.0 | 10.0 | 0.00 | 0.00 | 0.00 | 29 | 1000.4 |
| 20260509192101 | 66 | 220 | 29.0 | 29.0 | 0.00 | 0.00 | 0.00 | 29 | 1000.4 |
| 20260509191030 | 67 | 158 | 14.0 | 13.0 | 0.00 | 0.00 | 0.00 | 29 | 1000.2 |
| 20260509190533 | 66 | 137 | 16.0 | 14.0 | 0.00 | 0.00 | 0.00 | 27 | 1000.2 |
| 20260509185530 | 67 | 171 | 9.0 | 8.0 | 0.00 | 0.00 | 0.00 | 29 | 1000.3 |
| 20260509185002 | 66 | 167 | 15.0 | 14.0 | 0.00 | 0.00 | 0.00 | 27 | 1000.6 |
| 20260509184500 | 66 | 86 | 12.0 | 10.0 | 0.00 | 0.00 | 0.00 | 28 | 1000.6 |
| 20260509184005 | 67 | 119 | 17.0 | 16.0 | 0.00 | 0.00 | 0.00 | 28 | 1000.8 |
| 20260509183500 | 66 | 93 | 23.0 | 16.0 | 0.00 | 0.00 | 0.00 | 27 | 1000.8 |
| 20260509183000 | 67 | 106 | 15.0 | 14.0 | 0.00 | 0.00 | 0.00 | 28 | 1000.8 |
| 20260509182501 | 66 | 151 | 14.0 | 21.0 | 0.00 | 0.00 | 0.00 | 29 | 1000.9 |
| 20260509182000 | 66 | 171 | 13.0 | 14.0 | 0.00 | 0.00 | 0.00 | 28 | 1000.9 |
| 20260509181000 | 66 | 129 | 14.0 | 13.0 | 0.00 | 0.00 | 0.00 | 26 | 1001.2 |
| 20260509180500 | 67 | 140 | 13.0 | 20.0 | 0.00 | 0.00 | 0.00 | 27 | 1001.3 |
| 20260509180000 | 66 | 130 | 12.0 | 9.0 | 0.00 | 0.00 | 0.00 | 28 | 1001.4 |
| 20260509175506 | 66 | 281 | 18.0 | 16.0 | 0.00 | 0.00 | 0.00 | 26 | 1001.4 |
| 20260509175000 | 65 | 16 | 15.0 | 14.0 | 0.00 | 0.00 | 0.00 | 27 | 1001.6 |
| 20260509174502 | 66 | 181 | 14.0 | 12.0 | 0.00 | 0.00 | 0.00 | 27 | 1001.6 |
| 20260509173430 | 65 | 19 | 18.0 | 16.0 | 0.00 | 0.00 | 0.00 | 27 | 1001.8 |
| 20260509172933 | 66 | 196 | 12.0 | 8.0 | 0.00 | 0.00 | 0.00 | 29 | 1001.8 |
| 20260509172430 | 65 | 226 | 25.0 | 20.0 | 0.00 | 0.00 | 0.00 | 28 | 1001.9 |
| 20260509171930 | 66 | 112 | 22.0 | 21.0 | 0.00 | 0.00 | 0.00 | 28 | 1001.9 |
| 20260509171430 | 65 | 137 | 23.0 | 14.0 | 0.00 | 0.00 | 0.00 | 29 | 1002.2 |
| 20260509170929 | 66 | 112 | 20.0 | 16.0 | 0.00 | 0.00 | 0.00 | 30 | 1002.2 |
| 20260509170430 | 66 | 190 | 10.0 | 10.0 | 0.00 | 0.00 | 0.00 | 30 | 1002.4 |
| 20260509165929 | 65 | 208 | 7.0 | 6.0 | 0.00 | 0.00 | 0.00 | 31 | 1002.4 |
| 20260509165429 | 66 | 103 | 21.0 | 20.0 | 0.00 | 0.00 | 0.00 | 30 | 1002.4 |
| 20260509164929 | 65 | 178 | 15.0 | 10.0 | 0.00 | 0.00 | 0.00 | 30 | 1002.4 |
| 20260509164429 | 65 | 213 | 23.0 | 20.0 | 0.00 | 0.00 | 0.00 | 30 | 1002.4 |
| 20260509163901 | 65 | 163 | 25.0 | 16.0 | 0.00 | 0.00 | 0.00 | 30 | 1002.6 |
| 20260509163330 | 66 | 173 | 25.0 | 22.0 | 0.00 | 0.00 | 0.00 | 31 | 1002.6 |
| 20260509162833 | 66 | 101 | 9.0 | 14.0 | 0.00 | 0.00 | 0.00 | 33 | 1002.8 |
| 20260509162423 | 65 | 133 | 13.0 | 10.0 | 0.00 | 0.00 | 0.00 | 33 | 1002.8 |
| 20260509162330 | 65 | 133 | 13.0 | 10.0 | 0.00 | 0.00 | 0.00 | 33 | 1002.8 |
| 20260509161832 | 66 | 162 | 8.0 | 9.0 | 0.00 | 0.00 | 0.00 | 34 | 1002.8 |
| 20260509161330 | 65 | 142 | 12.0 | 10.0 | 0.00 | 0.00 | 0.00 | 33 | 1002.9 |
| 20260509160300 | 64 | 202 | 16.0 | 14.0 | 0.00 | 0.00 | 0.00 | 32 | 1003.2 |
| 20260509155802 | 64 | 125 | 20.0 | 20.0 | 0.00 | 0.00 | 0.00 | 32 | 1003.2 |
| 20260509155259 | 63 | 112 | 18.0 | 14.0 | 0.00 | 0.00 | 0.00 | 33 | 1003.4 |
| 20260509154800 | 63 | 133 | 23.0 | 13.0 | 0.00 | 0.00 | 0.00 | 34 | 1003.4 |
| 20260509154300 | 63 | 55 | 17.0 | 17.0 | 0.00 | 0.00 | 0.00 | 34 | 1003.4 |
| 20260509153759 | 63 | 208 | 14.0 | 8.0 | 0.00 | 0.00 | 0.00 | 34 | 1003.6 |
| 20260509153230 | 63 | 216 | 13.0 | 12.0 | 0.00 | 0.00 | 0.00 | 34 | 1003.6 |
| 20260509152730 | 63 | 270 | 13.0 | 12.0 | 0.00 | 0.00 | 0.00 | 36 | 1003.7 |
| 20260509151729 | 62 | 301 | 20.0 | 14.0 | 0.00 | 0.00 | 0.00 | 34 | 1003.7 |
| 20260509151230 | 62 | 200 | 15.0 | 21.0 | 0.00 | 0.00 | 0.00 | 35 | 1003.8 |
| 20260509150728 | 62 | 56 | 15.0 | 13.0 | 0.00 | 0.00 | 0.00 | 36 | 1003.8 |
| 20260509150327 | 62 | 107 | 20.0 | 14.0 | 0.00 | 0.00 | 0.00 | 38 | 1003.9 |
| 20260509150230 | 62 | 107 | 20.0 | 14.0 | 0.00 | 0.00 | 0.00 | 38 | 1003.9 |
| 20260509145731 | 62 | 215 | 8.0 | 6.0 | 0.00 | 0.00 | 0.00 | 40 | 1003.9 |
| 20260509144702 | 61 | 0 | 16.0 | 10.0 | 0.00 | 0.00 | 0.00 | 40 | 1003.9 |
| 20260509144201 | 61 | 132 | 15.0 | 20.0 | 0.00 | 0.00 | 0.00 | 42 | 1003.9 |
| 20260509143629 | 61 | 118 | 17.0 | 13.0 | 0.00 | 0.00 | 0.00 | 41 | 1003.9 |
| 20260509143133 | 61 | 273 | 9.0 | 8.0 | 0.00 | 0.00 | 0.00 | 41 | 1003.9 |
| 20260509143100 | 61 | 273 | 9.0 | 8.0 | 0.00 | 0.00 | 0.00 | 41 | 1003.9 |
| 20260509142600 | 61 | 92 | 16.0 | 12.0 | 0.00 | 0.00 | 0.00 | 42 | 1003.8 |
| 20260509142100 | 60 | 70 | 12.0 | 15.0 | 0.00 | 0.00 | 0.00 | 43 | 1003.8 |
| 20260509141603 | 60 | 117 | 21.0 | 16.0 | 0.00 | 0.00 | 0.00 | 42 | 1004.0 |
| 20260509141102 | 60 | 166 | 9.0 | 6.0 | 0.00 | 0.00 | 0.00 | 44 | 1004.0 |
| 20260509140559 | 59 | 244 | 10.0 | 8.0 | 0.00 | 0.00 | 0.00 | 43 | 1004.0 |
| 20260509140059 | 59 | 153 | 16.0 | 12.0 | 0.00 | 0.00 | 0.00 | 43 | 1004.0 |
| 20260509135100 | 59 | 195 | 13.0 | 10.0 | 0.00 | 0.00 | 0.00 | 46 | 1004.1 |
| 20260509134600 | 58 | 113 | 10.0 | 8.0 | 0.00 | 0.00 | 0.00 | 46 | 1004.1 |
| 20260509134058 | 58 | 103 | 10.0 | 17.0 | 0.00 | 0.00 | 0.00 | 47 | 1004.2 |
| 20260509133559 | 57 | 112 | 9.0 | 6.0 | 0.00 | 0.00 | 0.00 | 46 | 1004.2 |
| 20260509133101 | 57 | 112 | 10.0 | 6.0 | 0.00 | 0.00 | 0.00 | 46 | 1004.2 |
| 20260509132600 | 57 | 260 | 16.0 | 12.0 | 0.00 | 0.00 | 0.00 | 46 | 1004.2 |
| 20260509132100 | 57 | 142 | 9.0 | 8.0 | 0.00 | 0.00 | 0.00 | 48 | 1004.2 |
| 20260509131559 | 57 | 124 | 8.0 | 8.0 | 0.00 | 0.00 | 0.00 | 48 | 1004.3 |
| 20260509131100 | 57 | 123 | 8.0 | 6.0 | 0.00 | 0.00 | 0.00 | 50 | 1004.3 |
| 20260509130530 | 56 | 248 | 7.0 | 6.0 | 0.00 | 0.00 | 0.00 | 50 | 1004.3 |
| 20260509130030 | 56 | 112 | 15.0 | 13.0 | 0.00 | 0.00 | 0.00 | 50 | 1004.4 |
| 20260509125528 | 55 | 201 | 13.0 | 12.0 | 0.00 | 0.00 | 0.00 | 51 | 1004.4 |
| 20260509124958 | 55 | 89 | 15.0 | 9.0 | 0.00 | 0.00 | 0.00 | 51 | 1004.5 |
| 20260509124459 | 54 | 112 | 9.0 | 8.0 | 0.00 | 0.00 | 0.00 | 51 | 1004.5 |
| 20260509124004 | 55 | 79 | 10.0 | 8.0 | 0.00 | 0.00 | 0.00 | 52 | 1004.5 |
| 20260509123429 | 54 | 91 | 9.0 | 5.0 | 0.00 | 0.00 | 0.00 | 52 | 1004.5 |
| 20260509122930 | 52 | 164 | 8.0 | 6.0 | 0.00 | 0.00 | 0.00 | 55 | 1004.5 |
| 20260509122430 | 52 | 130 | 7.0 | 5.0 | 0.00 | 0.00 | 0.00 | 55 | 1004.6 |
| 20260509121929 | 53 | 292 | 7.0 | 7.0 | 0.00 | 0.00 | 0.00 | 53 | 1004.6 |
| 20260509121401 | 52 | 293 | 6.0 | 5.0 | 0.00 | 0.00 | 0.00 | 54 | 1004.5 |
| 20260509120900 | 52 | 156 | 7.0 | 5.0 | 0.00 | 0.00 | 0.00 | 55 | 1004.5 |